Castle Point, New York
Current Conditions -  °F | °C
As of 8:53 AM on Thursday 23 Oct 2014 (Local Time) from KPOU Reporting Station
Light Rain Light Rain  
Wind Chill: 44°   Ceiling: 1300
Heat Index: 49°   Visibility: 10mi
Dew Point: 44°   Wind: 14mph
Humidity: 83%   Direction: 360°N
Pressure: 29.76"   Gusts: 29mph
Location:  41.55°N, 73.96°W
Report Text: KPOU 231253Z 36012G25KT 10SM -RA OVC013 09/07 A2976 RMK AO2 RAE10B53 SLP073 P0001 T00940067
Loading
Personal Weather Stations






























Interactive Weather Map
Tropical Storm Tracking
New forecast layout! Learn more

10-Day Weather Forecast

Advertisements
Track Severe Weather on mobile